Date,TemperatureHighF,TemperatureAvgF,TemperatureLowF,DewpointHighF,DewpointAvgF,DewpointLowF,HumidityHigh,HumidityAvg,HumidityLow,PressureMaxIn,PressureMinIn,WindSpeedMaxMPH,WindSpeedAvgMPH,GustSpeedMaxMPH,PrecipitationSumIn
2013-1-1,74,64,56,60,56,47,80,74,60,30.25,30.06,12,2,16,0.00
2013-1-2,76,66,59,66,57,49,79,72,65,30.09,29.99,9,1,10,0.00
2013-1-3,69,63,56,62,53,45,80,70,64,30.21,30.06,8,0,10,0.07
2013-1-4,58,55,52,46,44,41,71,66,65,30.32,30.20,6,0,7,0.07
2013-1-5,73,60,48,61,51,38,81,74,65,30.35,30.22,5,0,9,0.00
2013-1-6,76,64,59,66,56,49,80,74,65,30.24,30.08,7,0,7,0.00
2013-1-7,67,60,52,58,51,45,81,73,65,30.27,30.16,6,0,11,0.00
2013-1-8,81,69,58,69,58,46,79,69,63,30.26,30.16,7,0,11,0.00
2013-1-9,80,72,66,70,61,53,79,70,62,30.33,30.22,9,2,12,0.00
2013-1-10,80,72,66,67,60,53,79,67,58,30.34,30.25,15,4,19,0.00
2013-1-11,79,70,62,66,59,48,79,69,61,30.29,30.18,11,2,13,0.00
2013-1-12,80,71,65,66,61,54,80,70,54,30.22,30.12,10,3,15,0.00
2013-1-13,78,70,64,66,60,51,80,71,61,30.20,30.10,12,2,14,0.00
2013-1-14,78,70,63,65,60,50,79,70,58,30.22,30.14,10,2,11,0.00
2013-1-15,79,72,65,66,61,52,79,69,56,30.18,30.07,11,3,14,0.00
2013-1-16,83,72,66,65,61,55,80,70,48,30.13,30.03,6,1,11,0.00
2013-1-17,73,63,50,66,54,42,81,74,65,30.16,30.00,24,8,29,0.00
2013-1-18,65,52,42,54,45,35,81,76,65,30.33,30.16,5,1,19,0.00
2013-1-19,72,60,52,60,52,42,81,74,63,30.33,30.18,9,1,12,0.00
2013-1-20,74,63,58,61,53,46,81,69,62,30.22,30.08,4,0,7,0.00
2013-1-21,74,64,58,61,55,50,81,72,53,30.13,30.02,4,0,6,0.00
2013-1-22,62,56,51,49,40,34,75,58,36,30.31,30.10,3,0,9,0.00
2013-1-23,68,54,40,47,37,33,78,55,29,30.41,30.31,4,0,7,0.00
2013-1-24,73,60,48,56,48,41,81,66,45,30.36,30.24,9,2,15,0.00
2013-1-25,76,62,52,59,48,41,81,62,42,30.34,30.20,11,1,14,0.00
2013-1-26,77,63,50,58,52,39,80,69,50,30.30,30.18,8,1,12,0.00
2013-1-27,77,65,55,61,54,43,80,68,53,30.35,30.25,12,1,15,0.00
2013-1-28,77,69,61,64,59,49,80,72,64,30.37,30.25,14,3,19,0.00
2013-1-29,80,71,64,67,60,51,79,70,57,30.28,30.11,14,5,17,0.00
2013-1-30,79,73,67,65,63,56,80,72,60,30.12,29.88,20,10,27,0.00
2013-1-31,71,57,48,65,40,26,82,56,25,30.27,29.89,19,2,33,0.00
2013-2-1,68,54,42,42,33,26,75,50,22,30.39,30.26,6,0,12,0.00
2013-2-2,70,55,41,46,38,30,81,56,29,30.35,30.17,6,1,9,0.00
2013-2-3,70,56,45,53,42,36,81,61,32,30.22,30.08,11,2,24,0.00
2013-2-4,65,55,44,46,40,34,82,60,32,30.16,30.07,7,1,8,0.00
2013-2-5,72,60,44,55,46,37,82,63,45,30.14,30.02,5,1,8,0.00
2013-2-6,73,66,58,63,57,52,81,75,65,30.15,30.06,4,0,8,0.00
2013-2-7,76,69,63,64,60,52,80,73,63,30.11,29.87,15,6,20,0.00
2013-2-8,77,67,58,62,57,49,81,71,54,30.11,29.89,19,5,21,0.00
2013-2-9,72,61,51,56,50,40,81,68,54,30.25,30.10,7,1,14,0.00
2013-2-10,75,65,55,60,55,48,81,71,56,30.31,30.18,21,7,25,0.00
2013-2-11,77,70,61,64,60,52,80,73,60,30.23,30.08,13,4,16,0.00
2013-2-12,80,71,65,66,61,52,80,71,57,30.12,29.94,12,4,14,0.00
2013-2-13,76,70,64,68,60,53,80,71,63,29.98,29.85,15,7,39,0.14
2013-2-14,67,61,54,60,52,42,81,73,64,30.09,29.95,7,1,11,0.00
2013-2-15,67,56,49,55,46,38,82,69,55,30.12,29.98,7,1,7,0.00
2013-2-16,64,55,47,48,42,25,82,62,42,30.17,29.94,21,5,26,0.01
2013-2-17,56,46,39,30,20,14,65,39,21,30.38,30.17,9,1,14,0.00
2013-2-18,65,51,34,47,36,24,76,59,34,30.41,30.25,15,3,18,0.00
2013-2-19,74,64,53,59,54,46,81,71,53,30.26,30.07,14,5,20,0.00
2013-2-20,70,62,54,59,53,48,81,71,57,30.18,30.05,5,1,9,0.00
2013-2-21,80,65,52,64,55,43,81,72,55,30.15,30.01,9,1,13,0.00
2013-2-22,82,72,64,69,61,53,80,69,54,30.11,30.00,14,4,15,0.00
2013-2-23,81,73,69,67,63,57,80,71,60,30.02,29.89,15,6,20,0.00
2013-2-24,75,70,64,68,61,56,81,73,65,29.99,29.89,13,3,13,0.00
2013-2-25,80,72,65,69,61,54,80,70,61,29.95,29.79,10,2,11,0.00
2013-2-26,74,71,66,66,62,56,81,74,62,29.88,29.74,22,9,30,0.19
2013-2-27,71,64,56,58,53,48,81,69,46,30.00,29.89,18,4,18,0.00
2013-2-28,69,60,52,53,49,44,82,69,44,30.03,29.90,22,6,26,0.00
2013-3-1,63,55,49,48,41,34,80,61,33,30.04,29.92,17,4,24,0.00
2013-3-2,56,50,43,38,34,26,70,55,32,30.07,29.98,28,6,38,0.00
2013-3-3,50,44,39,35,31,30,75,62,48,30.18,30.03,23,4,26,0.00
2013-3-4,62,50,37,47,32,24,82,54,26,30.26,30.14,8,1,9,0.00
2013-3-5,72,60,51,57,48,39,80,65,44,30.21,30.01,16,6,21,0.00
2013-3-6,66,58,49,58,38,26,80,51,24,30.18,29.94,18,6,24,0.00
2013-3-7,65,52,42,46,38,32,79,60,39,30.26,30.15,8,1,11,0.00
2013-3-8,74,56,42,51,42,34,82,61,28,30.26,30.14,7,1,9,0.00
2013-3-9,73,60,46,52,47,37,82,65,39,30.27,30.17,11,1,16,0.00
2013-3-10,75,64,53,57,52,44,81,66,48,30.22,30.10,16,4,28,0.00
2013-3-11,74,66,57,61,57,51,81,72,58,30.14,29.91,15,6,18,0.00
2013-3-12,69,65,56,62,58,49,81,76,67,30.05,29.87,14,7,21,0.01
2013-3-13,74,61,50,51,41,30,82,53,20,30.20,30.06,9,1,14,0.00
2013-3-14,66,55,46,44,35,29,76,50,26,30.31,30.19,4,0,11,0.00
2013-3-15,70,56,42,52,40,33,82,59,31,30.32,30.16,9,1,12,0.00
2013-3-16,76,63,53,52,47,40,81,59,30,30.21,30.06,9,4,16,0.00
2013-3-17,73,64,56,61,52,44,81,65,47,30.17,30.02,12,2,15,0.00
2013-3-18,74,69,62,65,61,54,81,77,70,30.08,29.92,11,4,14,0.02
2013-3-19,82,71,64,65,59,52,81,67,49,30.07,29.91,8,1,11,0.00
2013-3-20,72,65,58,64,57,47,81,75,66,30.01,29.82,7,1,11,0.14
2013-3-21,69,58,48,46,39,26,83,54,21,30.01,29.89,13,1,17,0.01
2013-3-22,75,61,46,56,47,40,82,63,40,30.05,29.92,9,2,15,0.00
2013-3-23,80,70,61,69,61,52,80,74,64,30.01,29.78,17,4,22,0.02
2013-3-24,77,72,68,69,64,57,80,76,65,29.85,29.64,27,11,33,0.08
2013-3-25,70,63,54,60,44,29,81,53,22,30.07,29.72,16,5,22,0.00
2013-3-26,58,52,45,39,30,20,64,45,24,30.27,30.06,21,5,26,0.00
2013-3-27,63,50,38,39,32,25,73,54,26,30.35,30.23,10,1,16,0.00
2013-3-28,72,55,40,43,36,26,82,54,23,30.33,30.20,9,0,13,0.00
2013-3-29,72,59,44,52,40,30,81,53,22,30.36,30.21,9,1,13,0.00
2013-3-30,75,64,53,55,49,39,81,61,40,30.29,30.13,13,1,15,0.00
2013-3-31,77,69,62,61,56,50,79,64,39,30.19,30.01,15,4,16,0.00
2013-4-1,79,71,64,64,61,56,80,71,54,30.04,29.95,19,8,25,0.00
2013-4-2,82,71,62,61,53,47,79,56,33,30.12,30.02,15,2,15,0.00
2013-4-3,80,69,60,66,59,52,80,71,56,30.12,29.97,15,3,18,0.01
2013-4-4,72,70,68,65,61,55,80,74,64,30.04,29.88,17,6,25,0.01
2013-4-5,74,68,57,65,59,50,80,75,68,30.03,29.82,12,4,20,0.00
2013-4-6,74,63,52,58,53,43,81,71,54,30.17,30.03,7,0,12,0.00
2013-4-7,77,68,57,61,55,46,80,63,49,30.20,30.09,13,2,19,0.00
2013-4-8,80,72,63,63,60,54,80,66,44,30.17,30.07,13,3,16,0.00
2013-4-9,81,73,64,66,59,52,79,64,48,30.20,30.10,14,5,26,0.00
2013-4-10,84,72,61,68,60,50,80,67,47,30.16,30.00,14,3,17,0.00
2013-4-11,85,78,74,72,68,65,79,71,59,30.02,29.82,18,9,26,0.00
2013-4-12,81,77,74,72,69,63,79,76,69,29.92,29.82,16,7,20,0.00
2013-4-13,83,74,67,68,63,53,80,68,49,30.02,29.89,7,1,11,0.00
2013-4-14,84,72,64,72,64,57,80,75,66,30.01,29.85,12,3,20,0.06
2013-4-15,86,75,66,70,64,58,80,70,52,30.11,29.91,10,2,10,0.00
2013-4-16,84,74,66,70,63,54,79,68,58,30.18,30.08,9,1,14,0.00
2013-4-17,82,73,65,68,60,52,79,65,50,30.18,30.07,9,1,18,0.00
2013-4-18,86,75,66,70,62,54,78,64,47,30.09,29.96,12,2,15,0.00
2013-4-19,86,79,72,72,68,61,79,69,58,30.03,29.91,17,9,39,0.01
2013-4-20,78,63,56,69,54,46,81,73,64,30.20,29.97,12,2,19,0.01
2013-4-21,76,68,58,68,59,49,80,74,63,30.18,30.06,3,0,12,0.00
2013-4-22,75,67,63,67,56,52,79,69,60,30.12,30.03,3,0,10,0.00
2013-4-23,79,69,60,64,56,47,80,64,50,30.16,30.05,8,1,14,0.00
2013-4-24,82,70,58,63,56,45,80,63,35,30.18,30.09,10,2,18,0.00
2013-4-25,83,74,65,69,63,56,80,68,44,30.23,30.13,11,2,16,0.00
2013-4-26,86,76,70,66,65,63,79,69,47,30.27,30.18,8,2,14,0.00
2013-4-27,83,73,65,67,60,52,79,64,47,30.26,30.12,17,1,17,0.00
2013-4-28,80,72,65,66,61,52,79,68,58,30.17,30.01,19,5,23,0.00
2013-4-29,82,75,68,69,65,60,79,70,54,30.05,29.92,9,3,15,0.00
2013-4-30,85,73,67,68,60,53,79,66,45,30.04,29.93,9,2,11,0.04
2013-5-1,78,71,67,69,60,53,78,68,60,30.05,29.97,5,0,12,0.00
2013-5-2,70,68,66,60,55,52,71,63,59,29.99,29.84,12,1,14,0.00
2013-5-3,77,71,67,69,60,52,78,68,59,29.85,29.75,7,1,12,0.00
2013-5-4,81,73,67,71,63,53,79,71,59,29.80,29.69,13,2,18,0.00
2013-5-5,77,69,58,63,54,45,81,61,37,29.95,29.77,18,5,23,0.01
2013-5-6,71,66,62,61,55,49,80,67,46,30.03,29.90,19,6,22,0.00
2013-5-7,75,67,59,62,57,53,80,71,53,30.07,29.98,19,6,25,0.00
2013-5-8,79,70,63,62,59,53,80,69,47,30.15,30.04,14,4,17,0.00
2013-5-9,82,72,62,66,60,50,79,66,47,30.18,30.09,7,1,11,0.00
2013-5-10,88,77,64,70,65,53,79,67,49,30.16,30.00,10,2,20,0.00
2013-5-11,85,77,70,72,68,63,79,74,60,30.07,29.97,18,4,22,0.00
2013-5-12,85,77,69,69,66,60,79,70,54,30.05,29.95,14,4,21,0.00
2013-5-13,82,72,63,65,56,47,80,58,33,30.15,30.00,5,0,12,0.00
2013-5-14,82,69,54,56,51,46,80,56,32,30.24,30.13,5,1,13,0.00
2013-5-15,82,71,60,62,56,49,80,62,39,30.24,30.09,12,2,15,0.00
2013-5-16,83,75,66,65,62,58,79,67,43,30.15,30.01,11,3,14,0.00
2013-5-17,85,76,65,68,65,57,79,69,49,30.12,30.03,12,3,17,0.00
2013-5-18,88,78,69,71,66,57,79,68,40,30.14,30.00,14,2,16,0.00
2013-5-19,86,77,70,73,69,62,79,75,64,30.10,29.98,17,3,26,0.00
2013-5-20,85,75,70,70,65,56,79,71,56,30.09,30.00,11,2,15,0.01
2013-5-21,80,74,69,71,64,55,79,71,58,30.05,29.94,11,2,15,0.00
2013-5-22,84,75,70,72,65,54,79,69,59,29.98,29.91,9,1,14,0.00
2013-5-23,88,78,70,73,65,55,78,65,53,30.00,29.90,9,1,16,0.00
2013-5-24,92,81,72,73,65,57,78,59,40,30.11,29.97,7,1,14,0.00
2013-5-25,84,75,67,69,60,52,78,60,44,30.21,30.09,6,1,14,0.00
2013-5-26,84,74,64,61,58,51,78,60,34,30.23,30.14,11,1,12,0.00
2013-5-27,83,74,64,65,61,57,79,65,43,30.20,30.11,16,4,21,0.00
2013-5-28,85,76,65,69,65,55,79,70,57,30.17,30.07,15,4,22,0.00
2013-5-29,84,77,70,72,66,55,78,70,58,30.14,30.07,21,5,35,0.01
2013-5-30,82,76,72,72,66,56,78,70,58,30.15,30.07,25,5,31,0.01
2013-5-31,83,77,71,73,67,59,79,73,65,30.14,30.06,15,3,24,0.01
2013-6-1,85,78,72,74,67,56,78,70,59,30.11,30.00,15,3,22,0.00
2013-6-2,88,78,73,76,66,57,78,66,57,30.04,29.88,9,2,21,0.01
2013-6-3,86,80,75,75,70,61,78,72,61,30.02,29.89,19,4,21,0.00
2013-6-4,85,77,74,74,67,62,79,72,65,30.06,29.95,21,5,26,0.02
2013-6-5,83,75,72,74,64,57,78,68,58,30.04,29.93,20,2,27,0.02
2013-6-6,80,76,72,73,64,57,79,67,57,29.93,29.63,23,11,30,0.52
2013-6-7,86,79,74,75,69,59,79,71,60,29.96,29.75,21,10,27,0.00
2013-6-8,86,78,73,75,68,59,79,72,60,30.11,29.97,15,4,25,0.10
2013-6-9,86,77,72,75,65,56,79,67,56,30.13,30.04,12,1,14,0.00
2013-6-10,89,80,74,74,69,58,78,68,57,30.12,30.02,8,2,18,0.01
2013-6-11,88,78,72,76,66,56,78,68,56,30.12,30.04,19,1,25,0.07
2013-6-12,92,83,74,76,70,60,78,67,48,30.10,29.99,7,2,11,0.00
2013-6-13,90,83,77,76,71,64,78,68,55,30.05,29.90,13,4,19,0.00
2013-6-14,88,82,78,75,72,66,78,71,59,29.95,29.85,14,9,20,0.00
2013-6-15,87,80,74,76,69,58,79,71,56,30.10,29.92,12,2,21,0.10
2013-6-16,87,80,75,77,71,64,79,75,64,30.12,30.04,14,2,18,0.00
2013-6-17,90,81,75,77,70,60,79,69,56,30.10,29.97,13,3,29,0.02
2013-6-18,88,82,77,76,72,65,78,72,61,30.08,29.96,10,4,22,0.04
2013-6-19,87,82,78,77,73,67,78,73,66,30.06,29.97,33,5,35,0.07
2013-6-20,90,80,73,75,69,57,79,69,55,30.11,30.02,14,2,19,0.03
2013-6-21,87,76,71,73,62,54,77,61,54,30.14,30.07,6,1,8,0.01
2013-6-22,87,77,71,74,64,54,78,66,55,30.15,30.08,12,1,15,0.01
2013-6-23,89,79,73,74,68,57,78,69,55,30.17,30.10,13,3,19,0.01
2013-6-24,89,81,74,75,69,57,78,68,54,30.21,30.10,12,3,19,0.00
2013-6-25,90,81,74,75,70,59,79,69,51,30.18,30.05,13,2,16,0.00
2013-6-26,90,80,75,75,70,64,79,72,58,30.10,30.01,15,3,18,0.00
2013-6-27,86,80,74,76,72,65,79,76,67,30.07,29.95,7,4,11,0.00
2013-6-28,86,81,78,76,72,68,78,74,67,29.98,29.84,19,7,23,0.00
2013-6-29,84,80,75,75,71,63,78,74,65,29.88,29.80,18,7,26,0.13
2013-6-30,84,78,75,75,69,64,79,73,65,29.89,29.82,17,6,32,0.18
2013-7-1,81,77,75,74,68,62,79,72,65,30.05,29.86,13,7,18,0.04
2013-7-2,83,77,73,75,67,56,79,71,54,30.12,30.00,22,5,28,0.05
2013-7-3,86,77,73,76,65,57,79,66,55,30.15,30.08,26,4,33,0.39
2013-7-4,87,78,73,75,66,56,78,67,54,30.19,30.09,19,5,31,0.02
2013-7-5,86,79,72,76,67,54,78,66,54,30.18,30.08,21,5,29,0.11
2013-7-6,88,81,74,74,69,57,78,68,55,30.15,30.06,16,6,22,0.00
2013-7-7,88,81,74,74,69,56,78,67,53,30.16,30.07,15,3,22,0.00
2013-7-8,89,81,74,74,69,56,78,67,53,30.19,30.10,13,2,16,0.00
2013-7-9,90,81,73,74,68,56,78,65,50,30.19,30.09,5,1,13,0.00
2013-7-10,89,79,73,78,67,55,79,68,52,30.12,29.98,21,2,26,0.09
2013-7-11,88,80,76,74,70,63,79,72,57,30.05,29.92,22,5,24,0.01
2013-7-12,82,79,77,74,71,66,79,76,67,29.97,29.91,13,3,17,0.01
2013-7-13,87,78,74,74,66,55,79,68,53,30.02,29.92,31,3,39,0.04
2013-7-14,87,77,73,75,64,55,78,66,53,30.12,30.00,10,3,26,0.08
2013-7-15,85,77,71,76,64,53,79,65,51,30.16,30.05,3,0,13,0.03
2013-7-16,88,79,73,75,67,55,78,66,52,30.19,30.13,16,2,33,0.02
2013-7-17,89,80,74,75,66,55,78,64,51,30.20,30.10,14,2,18,0.00
2013-7-18,85,78,74,74,66,55,78,66,52,30.15,30.07,16,4,20,0.00
2013-7-19,85,77,72,75,65,54,79,68,52,30.16,30.06,14,3,19,0.01
2013-7-20,86,78,74,76,66,54,78,67,50,30.13,30.02,21,3,29,0.02
2013-7-21,87,80,75,77,70,56,78,73,52,30.14,30.05,17,3,23,0.01
2013-7-22,85,78,72,76,66,55,78,67,50,30.14,30.07,9,4,35,0.17
2013-7-23,80,78,74,72,65,60,79,67,54,30.10,29.98,14,6,30,0.12
2013-7-24,84,79,72,77,68,56,79,68,56,30.02,29.89,14,7,24,0.02
2013-7-25,83,79,74,75,70,60,79,73,60,29.99,29.87,20,6,28,0.06
2013-7-26,94,81,74,77,67,55,78,63,50,30.03,29.95,14,0,14,0.00
2013-7-27,91,82,75,77,68,54,78,65,48,30.02,29.90,14,2,15,0.00
2013-7-28,86,80,75,76,70,62,79,73,59,30.08,29.95,25,3,30,0.03
2013-7-29,90,81,74,76,71,57,79,71,53,30.18,30.05,14,2,19,0.00
2013-7-30,91,83,77,77,73,66,78,72,52,30.20,30.09,7,1,18,0.00
2013-7-31,90,81,72,76,69,53,78,67,49,30.16,30.02,29,3,36,0.13
2013-8-1,88,80,76,74,69,57,79,71,50,30.07,29.98,9,2,11,0.01
2013-8-2,91,82,75,76,71,61,79,70,58,30.05,29.96,6,0,10,0.00
2013-8-3,87,81,76,77,71,60,78,72,55,30.10,30.02,15,5,22,0.10
2013-8-4,86,81,76,77,70,60,79,70,57,30.10,29.99,12,5,20,0.19
2013-8-5,88,81,76,78,69,57,78,67,52,30.03,29.91,16,4,21,0.02
2013-8-6,88,80,74,78,69,54,78,69,48,30.00,29.91,11,1,14,0.00
2013-8-7,90,81,76,77,68,55,78,65,46,30.00,29.93,9,1,12,0.00
2013-8-8,89,82,78,76,70,60,79,67,54,30.06,29.97,22,4,31,0.00
2013-8-9,88,80,75,77,66,54,79,63,47,30.09,30.00,8,2,17,0.00
2013-8-10,91,82,75,78,71,55,78,69,49,30.15,30.05,10,2,15,0.00
2013-8-11,92,83,78,77,72,63,78,68,51,30.18,30.07,6,2,13,0.00
2013-8-12,92,84,77,78,74,63,78,71,58,30.15,30.00,9,2,14,0.00
2013-8-13,92,84,79,76,74,69,78,72,55,30.07,29.94,14,3,15,0.00
2013-8-14,91,83,79,77,74,68,78,74,62,30.03,29.90,20,2,26,0.00
2013-8-15,90,83,79,76,73,71,79,73,57,30.05,29.93,11,2,19,0.00
2013-8-16,88,83,79,77,74,70,79,74,60,30.08,29.98,11,4,14,0.00
2013-8-17,90,81,74,77,68,53,79,67,48,30.12,29.99,25,2,33,0.00
2013-8-18,88,80,74,77,65,53,78,62,45,30.12,30.03,15,3,22,0.02
2013-8-19,88,80,74,77,66,51,78,63,44,30.11,29.99,11,1,19,0.01
2013-8-20,91,82,76,76,69,53,78,64,44,30.12,30.00,12,2,16,0.00
2013-8-21,88,78,73,77,61,52,78,56,43,30.14,30.07,10,1,17,0.03
2013-8-22,87,78,73,78,58,50,78,52,42,30.12,30.02,9,0,11,0.02
2013-8-23,86,76,70,78,55,47,78,48,41,30.06,29.98,16,0,26,0.14
2013-8-24,88,78,72,78,60,47,78,55,40,30.15,30.03,14,1,17,0.02
2013-8-25,86,78,74,75,62,47,78,59,39,30.19,30.11,1,0,9,0.00
2013-8-26,87,79,73,76,63,47,78,61,38,30.17,30.05,6,0,17,0.00
2013-8-27,86,79,72,74,62,46,78,59,39,30.11,30.01,10,1,17,0.01
2013-8-28,90,80,72,72,69,59,79,69,53,30.09,29.98,8,1,13,0.00
2013-8-29,90,83,75,75,72,66,78,70,54,30.05,29.93,9,3,12,0.00
2013-8-30,91,82,76,76,72,65,78,70,53,30.01,29.88,8,2,16,0.01
2013-8-31,87,81,75,77,71,64,79,72,62,29.99,29.89,18,2,26,0.05
2013-9-1,89,81,76,75,70,63,79,71,58,30.01,29.90,20,3,25,0.00
2013-9-2,90,82,76,77,72,62,79,71,56,30.03,29.93,11,3,12,0.00
2013-9-3,91,82,78,77,72,62,78,72,58,30.03,29.93,13,2,14,0.01
2013-9-4,90,82,76,77,71,53,78,70,43,30.10,29.99,15,2,19,0.00
2013-9-5,91,81,73,76,68,51,79,66,44,30.13,30.01,5,0,12,0.12
2013-9-6,89,78,71,77,63,47,78,61,40,30.08,29.99,6,0,23,0.02
2013-9-7,88,77,70,75,61,45,78,59,39,30.04,29.95,4,0,11,0.02
2013-9-8,88,79,72,74,64,45,79,60,39,30.00,29.90,0,0,9,0.00
2013-9-9,89,79,69,73,64,46,78,62,43,30.07,29.97,8,0,11,0.00
2013-9-10,88,79,72,73,66,50,78,65,46,30.12,30.03,8,1,17,0.00
2013-9-11,89,80,73,75,65,48,78,61,41,30.11,30.02,9,1,18,0.00
2013-9-12,87,79,73,75,65,47,78,63,39,30.05,29.91,13,1,13,0.00
2013-9-13,90,80,72,74,65,46,78,62,38,29.93,29.80,7,1,17,0.00
2013-9-14,91,83,76,76,71,62,78,69,47,30.00,29.85,6,0,13,0.00
2013-9-15,88,81,75,77,70,50,78,68,41,30.10,29.99,19,2,24,0.10
2013-9-16,89,80,73,76,65,48,78,61,39,30.11,29.99,11,1,15,0.00
2013-9-17,88,80,72,75,66,47,78,64,39,30.09,29.98,8,1,17,0.01
2013-9-18,87,79,74,75,67,57,78,67,54,30.07,30.00,6,0,17,0.00
2013-9-19,89,79,73,74,65,48,79,63,42,30.08,30.00,7,1,17,0.00
2013-9-20,86,77,70,72,66,53,79,68,56,30.06,29.93,8,1,11,0.00
2013-9-21,87,79,72,71,67,56,78,66,53,29.97,29.77,4,0,13,0.00
2013-9-22,86,79,75,76,65,49,78,65,38,29.88,29.77,13,4,16,0.01
2013-9-23,82,77,74,74,57,49,77,52,38,29.98,29.86,13,3,14,0.00
2013-9-24,82,77,72,74,62,47,78,60,41,29.97,29.85,10,5,16,0.02
2013-9-25,81,77,74,74,66,54,79,68,46,29.87,29.79,19,8,22,0.03
2013-9-26,89,80,71,75,63,50,78,57,39,29.90,29.79,10,3,16,0.01
2013-9-27,81,74,69,72,60,45,79,64,41,30.00,29.88,10,1,11,0.00
2013-9-28,81,74,70,73,60,43,79,63,38,30.04,29.95,9,1,18,0.00
2013-9-29,84,76,69,73,62,46,79,64,42,30.02,29.93,7,0,10,0.00
2013-9-30,86,76,69,72,62,44,79,63,39,30.04,29.94,7,0,9,0.00
2013-10-1,86,77,72,73,68,62,79,73,63,30.10,30.01,13,0,13,0.00
2013-10-2,86,76,68,71,65,52,79,69,57,30.09,30.02,5,0,9,0.00
2013-10-3,87,77,68,73,63,43,78,63,40,30.10,30.00,10,1,12,0.00
2013-10-4,89,78,71,73,63,44,78,61,37,30.11,30.00,1,0,8,0.00
2013-10-5,86,78,70,73,64,45,78,63,40,30.09,29.98,7,0,13,0.00
2013-10-6,91,78,71,73,62,43,79,60,36,30.01,29.87,12,1,18,0.00
2013-10-7,80,77,76,73,66,52,79,67,42,29.90,29.75,14,4,22,0.00
2013-10-8,84,76,71,75,56,45,78,53,36,29.99,29.79,9,1,11,0.00
2013-10-9,76,70,66,68,56,47,79,64,49,30.07,29.97,5,0,7,0.00
2013-10-10,84,73,63,68,59,41,80,62,45,30.09,29.99,4,0,7,0.00
2013-10-11,86,74,68,68,61,42,79,64,39,30.07,29.96,3,0,7,0.00
2013-10-12,86,76,65,69,61,46,79,62,45,30.07,29.98,6,0,10,0.00
2013-10-13,85,76,66,68,62,45,79,63,44,30.11,30.02,4,0,9,0.00
2013-10-14,84,73,66,68,59,42,79,61,41,30.07,29.96,4,0,8,0.00
2013-10-15,77,72,67,70,58,46,79,63,43,30.03,29.93,3,0,7,0.00
2013-10-16,83,74,69,72,57,42,79,55,37,30.01,29.91,5,1,6,0.00
2013-10-17,88,77,70,72,59,42,78,56,35,30.01,29.91,3,0,6,0.00
2013-10-18,87,80,74,72,68,61,79,69,53,30.02,29.91,11,2,15,0.00
2013-10-19,86,79,76,74,70,64,79,74,61,29.98,29.88,9,2,12,0.00
2013-10-20,86,78,72,74,66,46,79,67,38,30.00,29.89,4,0,6,0.00
2013-10-21,88,77,71,75,62,43,78,61,36,30.03,29.92,4,0,10,0.00
2013-10-22,85,78,72,74,60,43,79,57,34,29.98,29.83,15,4,23,0.00
2013-10-23,80,73,66,68,57,45,79,59,39,30.05,29.83,8,1,13,0.00
2013-10-24,73,62,56,56,50,47,80,66,45,30.20,30.05,2,0,6,0.00
2013-10-25,80,66,55,58,53,44,80,64,40,30.29,30.17,1,0,7,0.00
2013-10-26,78,64,54,59,52,42,81,66,41,30.25,30.12,3,0,8,0.00
2013-10-27,78,65,54,58,48,32,80,56,37,30.19,30.08,3,0,8,0.00
2013-10-28,82,67,55,64,54,35,80,65,43,30.23,30.14,5,0,7,0.00
2013-10-29,81,71,62,66,56,37,79,61,40,30.27,30.18,3,0,10,0.00
2013-10-30,82,72,64,69,57,39,79,60,39,30.26,30.14,7,1,12,0.00
2013-10-31,82,74,66,69,58,38,79,58,34,30.17,30.00,16,3,18,0.00
2013-11-1,83,77,73,72,67,59,79,71,58,30.03,29.88,15,4,17,0.00
2013-11-2,76,69,63,68,55,40,79,63,35,30.00,29.82,14,3,15,0.00
2013-11-3,73,64,54,58,50,40,81,63,39,30.16,29.99,3,0,13,0.00
2013-11-4,78,67,58,64,57,46,80,71,47,30.22,30.14,7,0,22,0.01
2013-11-5,81,72,64,67,57,39,78,60,40,30.20,30.13,17,1,17,0.00
2013-11-6,80,71,64,69,56,39,79,62,39,30.16,30.07,2,0,7,0.01
2013-11-7,75,71,67,68,53,39,79,56,35,30.09,29.98,4,0,6,0.00
2013-11-8,73,66,59,64,55,41,80,68,39,30.17,30.02,4,0,9,0.00
2013-11-9,79,68,59,65,56,42,80,67,53,30.22,30.14,9,0,11,0.01
2013-11-10,80,69,62,67,53,35,79,59,37,30.21,30.11,4,0,7,0.00
2013-11-11,80,70,61,67,55,36,80,61,39,30.20,30.10,8,0,12,0.00
2013-11-12,78,68,62,68,52,35,80,59,36,30.15,30.03,5,0,7,0.00
2013-11-13,64,58,51,57,49,45,81,72,59,30.37,30.12,8,1,16,0.00
2013-11-14,73,59,47,58,49,34,81,70,56,30.36,30.22,7,1,17,0.00
2013-11-15,69,64,57,63,49,39,80,60,38,30.24,30.11,10,0,13,0.03
2013-11-16,75,68,64,68,48,37,78,50,35,30.17,30.08,6,0,7,0.00
2013-11-17,80,73,68,70,57,39,79,59,35,30.11,30.01,9,1,11,0.00
2013-11-18,78,73,69,70,55,39,78,56,34,30.06,29.93,10,2,15,0.00
2013-11-19,75,68,62,65,53,39,80,61,34,30.02,29.91,2,0,7,0.00
2013-11-20,77,69,62,69,54,39,79,61,36,30.15,30.01,3,0,9,0.00
2013-11-21,77,70,66,69,52,36,79,55,32,30.23,30.13,8,0,12,0.01
2013-11-22,78,71,65,69,55,42,79,59,38,30.24,30.14,14,1,19,0.01
2013-11-23,81,71,63,70,52,35,79,54,34,30.15,30.03,6,1,7,0.00